Time;durP1;ratioP1;P1;durP2;ratioP2;P2;SDS_P1;SDS_P2;PMS_P1;PMS_P2;Temp;Humidity;BMP_temperature;BMP_pressure;BME280_temperature;BME280_humidity;BME280_pressure;Samples;Min_cycle;Max_cycle;Signal;HPM_P1;HPM_P2
2023/04/30 00:00:10;;;;;;;6.67;6.07;;;;;;;13.39;63.72;99291.34;5115624;27;40589;-77
2023/04/30 00:02:40;;;;;;;8.20;6.33;;;;;;;13.39;63.57;99288.66;5130954;27;42816;-77
2023/04/30 00:05:09;;;;;;;8.07;7.27;;;;;;;13.37;64.19;99284.41;5115200;27;41996;-79
2023/04/30 00:07:40;;;;;;;7.87;7.13;;;;;;;13.35;64.06;99289.84;5114857;27;39021;-79
2023/04/30 00:10:11;;;;;;;8.60;7.73;;;;;;;12.96;64.33;99224.19;5130262;27;42708;-79
2023/04/30 00:12:39;;;;;;;7.73;6.93;;;;;;;13.33;63.97;99294.41;5133120;27;43983;-80
2023/04/30 00:15:07;;;;;;;7.30;6.03;;;;;;;13.34;63.95;99296.13;5114894;27;42684;-77
2023/04/30 00:17:35;;;;;;;7.47;6.77;;;;;;;13.33;63.73;99296.22;5131609;27;38643;-82
2023/04/30 00:20:02;;;;;;;8.10;7.30;;;;;;;13.26;64.34;99288.63;5115046;27;40976;-78
2023/04/30 00:22:32;;;;;;;7.70;6.87;;;;;;;13.34;63.90;99303.25;5114525;27;42989;-80
2023/04/30 00:24:59;;;;;;;6.77;6.17;;;;;;;13.18;64.27;99285.66;5133255;27;43050;-80
2023/04/30 00:27:29;;;;;;;6.67;5.80;;;;;;;13.21;63.81;99290.78;5133145;27;39677;-81
2023/04/30 00:29:57;;;;;;;5.90;5.40;;;;;;;13.31;63.62;99298.97;5132006;27;40735;-79
2023/04/30 00:32:25;;;;;;;5.70;5.10;;;;;;;13.31;63.72;99298.97;5114753;27;42604;-77
2023/04/30 00:34:53;;;;;;;6.70;5.40;;;;;;;13.17;63.69;99283.94;5114623;27;41290;-78
2023/04/30 00:37:21;;;;;;;5.27;4.77;;;;;;;13.31;63.58;99298.97;5131588;27;40969;-79
2023/04/30 00:39:48;;;;;;;5.40;4.93;;;;;;;13.31;63.44;99312.28;5131984;27;42805;-80
2023/04/30 00:42:16;;;;;;;4.93;4.43;;;;;;;13.28;63.55;99308.00;5131474;27;43509;-78
2023/04/30 00:44:45;;;;;;;5.27;4.83;;;;;;;13.28;63.85;99305.34;5114725;27;42270;-78
2023/04/30 00:47:12;;;;;;;6.37;5.77;;;;;;;13.27;63.63;99311.63;5114090;27;40111;-80
2023/04/30 00:49:40;;;;;;;6.50;5.37;;;;;;;13.24;63.82;99300.31;5114545;27;40721;-79
2023/04/30 00:52:08;;;;;;;5.93;5.33;;;;;;;13.25;63.56;99300.22;5114383;27;42397;-80
2023/04/30 00:54:36;;;;;;;6.30;5.70;;;;;;;13.17;63.86;99291.91;5114237;27;41478;-80
2023/04/30 00:57:05;;;;;;;7.43;6.63;;;;;;;13.16;64.59;99300.84;5132605;27;39993;-79
2023/04/30 00:59:33;;;;;;;7.40;6.70;;;;;;;13.20;64.43;99305.00;5114501;27;40825;-81
2023/04/30 01:02:03;;;;;;;8.57;7.50;;;;;;;13.18;64.99;99309.59;5113812;27;41890;-78
2023/04/30 01:04:31;;;;;;;8.47;7.67;;;;;;;13.17;64.99;99313.19;5113968;27;42198;-78
2023/04/30 01:07:00;;;;;;;8.03;7.33;;;;;;;13.11;64.84;99300.25;5114253;27;39563;-77
2023/04/30 01:09:28;;;;;;;7.60;6.90;;;;;;;13.15;64.68;99315.09;5131425;27;40859;-80
2023/04/30 01:12:07;;;;;;;8.50;7.60;;;;;;;13.14;65.13;99308.06;5113934;27;41325;-78
2023/04/30 01:14:43;;;;;;;8.47;7.67;;;;;;;13.13;65.24;99316.97;5114431;27;40942;-77
2023/04/30 01:17:18;;;;;;;8.67;7.70;;;;;;;13.12;64.91;99320.56;5113890;27;38864;-78
2023/04/30 01:19:46;;;;;;;8.10;7.30;;;;;;;13.12;65.53;99320.56;5114605;27;40585;-79
2023/04/30 01:22:27;;;;;;;6.67;5.97;;;;;;;13.11;65.20;99324.19;5113733;27;42842;-78
2023/04/30 01:25:17;;;;;;;7.20;6.43;;;;;;;13.13;65.33;99329.41;5128146;27;43156;-79
2023/04/30 01:28:03;;;;;;;7.97;7.03;;;;;;;13.13;65.58;99326.75;5113383;27;38999;-79
2023/04/30 01:30:32;;;;;;;8.97;7.47;;;;;;;13.10;65.33;99330.47;5131124;27;42795;-79
2023/04/30 01:33:00;;;;;;;6.53;5.83;;;;;;;13.09;65.16;99328.78;5130640;27;43749;-79
2023/04/30 01:35:50;;;;;;;8.33;7.47;;;;;;;13.05;65.68;99319.28;5113737;27;41246;-78
2023/04/30 01:38:31;;;;;;;7.77;7.00;;;;;;;13.09;65.47;99328.78;5113751;27;39770;-78
2023/04/30 01:41:09;;;;;;;8.37;7.47;;;;;;;13.07;65.68;99327.16;5129064;27;41677;-77
2023/04/30 01:43:47;;;;;;;7.80;6.97;;;;;;;13.07;65.31;99330.66;5131105;27;42917;-80
2023/04/30 01:46:21;;;;;;;7.57;6.83;;;;;;;13.04;65.42;99320.22;5113873;27;41216;-78
2023/04/30 01:48:59;;;;;;;6.43;5.47;;;;;;;12.89;65.42;99313.25;5128090;27;40032;-79
2023/04/30 01:51:32;;;;;;;5.80;5.23;;;;;;;13.06;65.00;99344.91;5113582;27;40364;-80
2023/04/30 01:54:08;;;;;;;7.50;6.80;;;;;;;13.06;65.14;99344.06;5145092;27;42744;-80
2023/04/30 01:56:44;;;;;;;6.47;5.87;;;;;;;12.99;65.21;99332.97;5127364;27;43190;-77
2023/04/30 01:59:15;;;;;;;6.17;5.57;;;;;;;13.04;65.18;99346.81;5127699;27;41160;-77
2023/04/30 02:01:43;;;;;;;8.40;6.67;;;;;;;13.02;65.71;99338.09;5116928;27;41773;-80
2023/04/30 02:04:11;;;;;;;7.83;7.13;;;;;;;12.99;65.60;99343.59;5117153;27;41797;-80
2023/04/30 02:06:40;;;;;;;7.17;6.57;;;;;;;12.90;65.50;99322.94;5133931;27;42953;-77
2023/04/30 02:09:09;;;;;;;7.70;6.97;;;;;;;12.93;65.55;99334.22;5117200;27;39058;-79
2023/04/30 02:11:37;;;;;;;10.50;8.07;;;;;;;12.98;66.05;99351.69;5133801;27;41784;-77
2023/04/30 02:14:04;;;;;;;9.40;8.57;;;;;;;12.95;66.16;99347.41;5133502;27;42624;-80
2023/04/30 02:16:33;;;;;;;8.63;7.73;;;;;;;12.94;66.33;99348.38;5116069;27;41174;-77
2023/04/30 02:19:02;;;;;;;10.03;8.27;;;;;;;12.88;66.87;99336.31;5131159;27;40958;-78
2023/04/30 02:21:30;;;;;;;9.50;8.50;;;;;;;12.92;66.69;99347.59;5116461;27;40968;-79
2023/04/30 02:23:57;;;;;;;10.03;8.03;;;;;;;12.90;66.93;99344.19;5116942;27;41755;-79
2023/04/30 02:26:25;;;;;;;9.43;8.47;;;;;;;12.89;66.82;99353.13;5133832;27;42311;-80
2023/04/30 02:28:53;;;;;;;9.67;8.70;;;;;;;12.89;66.84;99353.13;5133890;27;39929;-77
2023/04/30 02:31:20;;;;;;;10.77;9.77;;;;;;;12.86;67.57;99342.66;5116583;27;40825;-80
2023/04/30 02:33:50;;;;;;;9.27;8.37;;;;;;;12.77;67.16;99332.63;5116617;27;41429;-79
2023/04/30 02:36:17;;;;;;;8.63;7.83;;;;;;;12.86;67.05;99348.00;5116231;27;41257;-80
2023/04/30 02:38:45;;;;;;;9.00;8.10;;;;;;;12.84;66.90;99339.28;5116828;27;38989;-78
2023/04/30 02:41:13;;;;;;;8.53;7.80;;;;;;;12.86;67.10;99340.88;5116575;27;40765;-76
2023/04/30 02:43:40;;;;;;;8.97;8.23;;;;;;;12.86;67.07;99348.00;5116291;27;41660;-77
2023/04/30 02:46:08;;;;;;;11.20;8.63;;;;;;;12.85;67.13;99344.50;5133702;27;42891;-78
2023/04/30 02:48:35;;;;;;;8.57;7.77;;;;;;;12.78;66.83;99337.00;5133791;27;40919;-79
2023/04/30 02:51:05;;;;;;;9.57;8.57;;;;;;;12.85;66.84;99346.31;5133587;27;41877;-78
2023/04/30 02:53:33;;;;;;;7.23;6.53;;;;;;;12.84;66.57;99344.59;5115893;27;41941;-79
2023/04/30 02:56:00;;;;;;;7.90;6.73;;;;;;;12.83;66.56;99349.06;5116093;27;41195;-77
2023/04/30 02:58:28;;;;;;;6.50;5.90;;;;;;;12.84;66.26;99345.47;5133462;27;39899;-79
2023/04/30 03:00:56;;;;;;;6.00;5.50;;;;;;;12.86;66.36;99348.00;5133669;27;42086;-78
2023/04/30 03:03:24;;;;;;;7.33;6.63;;;;;;;12.85;66.13;99346.31;5133297;27;42676;-79
2023/04/30 03:05:51;;;;;;;7.80;7.10;;;;;;;12.83;66.49;99342.91;5133589;27;42238;-78
2023/04/30 03:08:20;;;;;;;9.70;8.47;;;;;;;12.80;67.09;99335.97;5132938;27;38979;-79
2023/04/30 03:10:48;;;;;;;10.53;9.37;;;;;;;12.76;67.09;99328.28;5115856;27;40178;-78
2023/04/30 03:13:16;;;;;;;8.97;8.13;;;;;;;12.77;66.98;99335.28;5115591;27;41844;-77
2023/04/30 03:15:44;;;;;;;8.23;7.53;;;;;;;12.75;67.13;99330.06;5133171;27;43201;-76
2023/04/30 03:18:12;;;;;;;8.07;7.27;;;;;;;12.72;66.81;99335.59;5132388;27;38911;-77
2023/04/30 03:20:41;;;;;;;8.63;7.73;;;;;;;12.73;66.69;99336.47;5133326;27;41681;-78
2023/04/30 03:23:08;;;;;;;11.60;9.07;;;;;;;12.72;67.39;99338.25;5134038;27;42807;-80
2023/04/30 03:25:38;;;;;;;8.13;7.33;;;;;;;12.69;67.41;99329.63;5134093;27;43147;-80
2023/04/30 03:28:05;;;;;;;8.90;8.10;;;;;;;12.69;67.48;99338.44;5115618;27;39127;-79
2023/04/30 03:30:33;;;;;;;9.60;8.60;;;;;;;12.67;67.47;99336.84;5133141;27;41719;-76
2023/04/30 03:33:01;;;;;;;10.20;9.20;;;;;;;12.63;67.63;99340.63;5132518;27;42849;-78
2023/04/30 03:35:29;;;;;;;10.03;9.00;;;;;;;12.59;67.79;99340.84;5132799;27;42735;-78
2023/04/30 03:37:56;;;;;;;10.47;8.63;;;;;;;12.58;67.87;99343.59;5115285;27;38629;-77
2023/04/30 03:40:25;;;;;;;10.43;9.30;;;;;;;12.57;68.01;99340.09;5132869;27;42519;-77
2023/04/30 03:42:54;;;;;;;10.17;8.20;;;;;;;12.56;67.44;99345.50;5115319;27;41992;-79
2023/04/30 03:45:22;;;;;;;7.87;7.10;;;;;;;12.56;67.47;99350.81;5132737;27;41970;-79
2023/04/30 03:47:51;;;;;;;9.23;8.33;;;;;;;12.55;67.94;99349.09;5132460;27;39871;-77
2023/04/30 03:50:19;;;;;;;8.37;7.57;;;;;;;12.55;67.85;99349.09;5132506;27;42659;-79
2023/04/30 03:52:47;;;;;;;9.00;8.10;;;;;;;12.55;67.94;99346.44;5132460;27;43106;-80
2023/04/30 03:55:16;;;;;;;8.80;7.90;;;;;;;12.53;68.15;99341.22;5132567;27;43324;-80
2023/04/30 03:57:43;;;;;;;9.50;8.53;;;;;;;12.54;67.88;99342.06;5132380;27;41034;-78
2023/04/30 04:00:15;;;;;;;9.90;8.97;;;;;;;12.53;68.14;99343.88;5132620;27;41915;-78
2023/04/30 04:02:47;;;;;;;11.97;9.73;;;;;;;12.50;68.61;99340.53;5115425;27;42130;-77
2023/04/30 04:05:16;;;;;;;10.53;9.60;;;;;;;12.49;68.47;99333.53;5132435;27;42254;-76
2023/04/30 04:07:45;;;;;;;11.00;8.90;;;;;;;12.49;68.61;99331.72;5114799;27;38881;-79
2023/04/30 04:10:13;;;;;;;9.93;8.93;;;;;;;12.48;68.64;99339.81;5132258;27;41428;-77
2023/04/30 04:12:41;;;;;;;10.03;9.07;;;;;;;12.43;68.97;99329.47;5133149;27;43663;-77
2023/04/30 04:15:10;;;;;;;12.00;10.83;;;;;;;12.42;68.68;99333.06;5132244;27;43055;-77
2023/04/30 04:17:39;;;;;;;11.30;9.47;;;;;;;12.40;69.21;99334.97;5114096;27;40202;-77
2023/04/30 04:20:09;;;;;;;12.23;10.97;;;;;;;12.36;69.33;99332.59;5132175;27;42498;-79
2023/04/30 04:22:39;;;;;;;12.67;9.47;;;;;;;12.34;69.01;99338.00;5129791;27;42638;-79
2023/04/30 04:25:07;;;;;;;10.80;9.73;;;;;;;12.32;69.39;99337.25;5132288;27;42203;-77
2023/04/30 04:27:36;;;;;;;11.47;10.37;;;;;;;12.28;69.16;99333.06;5131644;27;41024;-78
2023/04/30 04:30:04;;;;;;;10.30;9.27;;;;;;;12.32;69.46;99339.91;5115032;27;40829;-79
2023/04/30 04:32:31;;;;;;;12.43;11.23;;;;;;;12.31;69.41;99340.84;5114671;27;41552;-78
2023/04/30 04:35:01;;;;;;;9.83;8.83;;;;;;;12.32;69.47;99353.19;5132121;27;42923;-78
2023/04/30 04:37:29;;;;;;;10.93;9.77;;;;;;;12.33;69.26;99354.91;5131490;27;39493;-79
2023/04/30 04:39:57;;;;;;;11.70;10.43;;;;;;;12.24;69.45;99334.19;5131870;27;41755;-77
2023/04/30 04:42:25;;;;;;;10.10;9.13;;;;;;;12.36;68.98;99356.50;5131414;27;43790;-78
2023/04/30 04:44:53;;;;;;;10.93;9.83;;;;;;;12.38;69.16;99351.94;5131732;27;43130;-77
2023/04/30 04:47:21;;;;;;;11.83;10.30;;;;;;;12.44;69.02;99357.75;5114341;27;40193;-79
2023/04/30 04:49:49;;;;;;;11.30;10.03;;;;;;;12.46;68.66;99353.19;5114477;27;40825;-78
2023/04/30 04:52:18;;;;;;;11.10;10.00;;;;;;;12.54;68.52;99358.88;5114157;27;42746;-77
2023/04/30 04:54:46;;;;;;;11.50;10.30;;;;;;;12.62;68.41;99368.16;5131694;27;43257;-80
2023/04/30 04:57:14;;;;;;;11.70;10.10;;;;;;;12.67;68.41;99366.91;5131417;27;40764;-78
2023/04/30 04:59:42;;;;;;;11.43;9.50;;;;;;;12.73;67.94;99374.53;5131534;27;41610;-77
2023/04/30 05:02:10;;;;;;;11.97;10.00;;;;;;;12.77;68.32;99375.16;5114045;27;43309;-80
2023/04/30 05:04:38;;;;;;;10.57;9.53;;;;;;;12.84;67.88;99371.19;5114462;27;41174;-78
2023/04/30 05:07:06;;;;;;;13.10;10.43;;;;;;;12.91;67.59;99378.66;5114130;27;39479;-80
2023/04/30 05:09:36;;;;;;;10.87;9.73;;;;;;;13.03;67.04;99382.34;5114218;27;40896;-79
2023/04/30 05:12:03;;;;;;;11.10;10.03;;;;;;;13.17;66.71;99384.16;5131118;27;42399;-79
2023/04/30 05:14:31;;;;;;;10.97;9.97;;;;;;;13.26;66.53;99379.06;5132162;27;42420;-79
2023/04/30 05:16:59;;;;;;;10.63;9.53;;;;;;;13.47;66.35;99383.97;5130913;27;39095;-80
2023/04/30 05:19:27;;;;;;;10.27;9.27;;;;;;;13.69;66.15;99397.53;5129177;27;41952;-79
2023/04/30 05:21:55;;;;;;;9.90;8.90;;;;;;;13.88;65.38;99387.34;5113945;27;41640;-78
2023/04/30 05:24:22;;;;;;;10.40;9.10;;;;;;;13.97;64.83;99383.25;5113890;27;41707;-78
2023/04/30 05:26:51;;;;;;;11.47;10.30;;;;;;;14.09;64.11;99397.53;5130811;27;39108;-79
2023/04/30 05:29:19;;;;;;;11.77;10.67;;;;;;;14.14;63.05;99398.06;5130996;27;41747;-77
2023/04/30 05:31:46;;;;;;;11.73;9.93;;;;;;;14.14;62.92;99412.22;5130708;27;42745;-76
2023/04/30 05:34:14;;;;;;;11.20;10.23;;;;;;;14.05;63.22;99404.00;5132432;27;42216;-78
2023/04/30 05:36:42;;;;;;;11.70;10.47;;;;;;;13.85;63.50;99374.25;5134369;27;40300;-79
2023/04/30 05:39:09;;;;;;;11.97;9.77;;;;;;;14.08;63.76;99398.50;5135893;27;41754;-77
2023/04/30 05:41:37;;;;;;;10.97;9.50;;;;;;;14.09;63.55;99394.88;5117159;27;42298;-79
2023/04/30 05:44:07;;;;;;;10.70;9.33;;;;;;;14.12;63.26;99402.63;5117209;27;42163;-79
2023/04/30 05:46:35;;;;;;;10.53;9.30;;;;;;;14.20;63.32;99405.63;5134400;27;39089;-80
2023/04/30 05:49:03;;;;;;;11.07;9.87;;;;;;;14.23;62.94;99402.75;5117085;27;40698;-81
2023/04/30 05:51:31;;;;;;;10.17;9.17;;;;;;;14.25;62.91;99407.00;5116912;27;41887;-79
2023/04/30 05:53:59;;;;;;;11.00;9.30;;;;;;;14.25;62.56;99407.00;5117551;27;40888;-78
2023/04/30 05:56:27;;;;;;;10.60;9.50;;;;;;;14.29;62.12;99402.34;5134230;27;39953;-78
2023/04/30 05:58:54;;;;;;;9.93;8.90;;;;;;;14.36;62.42;99392.94;5135623;27;42521;-78
2023/04/30 06:01:23;;;;;;;10.67;9.57;;;;;;;14.50;61.91;99400.00;5135132;27;42748;-77
2023/04/30 06:03:51;;;;;;;13.53;10.60;;;;;;;14.55;61.68;99397.88;5134267;27;41865;-79
2023/04/30 06:06:19;;;;;;;9.40;8.50;;;;;;;14.74;61.06;99412.47;5116580;27;40472;-78
2023/04/30 06:08:46;;;;;;;10.33;9.33;;;;;;;14.89;60.92;99409.69;5135059;27;41865;-79
2023/04/30 06:11:14;;;;;;;10.87;9.67;;;;;;;15.16;60.22;99414.84;5134308;27;42738;-80
2023/04/30 06:13:42;;;;;;;10.40;9.40;;;;;;;15.49;59.16;99411.53;5133965;27;42073;-79
2023/04/30 06:16:10;;;;;;;9.97;8.90;;;;;;;15.76;57.34;99425.53;5134201;27;40076;-77
2023/04/30 06:18:39;;;;;;;12.23;9.37;;;;;;;15.77;56.67;99427.25;5134641;27;42806;-80
2023/04/30 06:21:07;;;;;;;9.53;8.63;;;;;;;15.72;56.37;99429.38;5134027;27;42915;-78
2023/04/30 06:23:34;;;;;;;8.27;7.37;;;;;;;15.85;57.32;99430.19;5116292;27;41540;-80
2023/04/30 06:26:02;;;;;;;9.93;8.10;;;;;;;16.10;56.86;99424.69;5133950;27;40054;-80
2023/04/30 06:28:30;;;;;;;10.10;9.20;;;;;;;16.26;54.72;99444.91;5116473;27;40387;-79
2023/04/30 06:30:58;;;;;;;9.23;8.17;;;;;;;16.68;54.13;99446.97;5116937;27;41634;-79
2023/04/30 06:33:25;;;;;;;8.50;7.07;;;;;;;17.47;53.22;99450.47;5133521;27;42414;-79
2023/04/30 06:35:54;;;;;;;9.57;8.67;;;;;;;18.05;49.97;99478.69;5134097;27;38318;-82
2023/04/30 06:38:22;;;;;;;8.87;7.97;;;;;;;18.14;49.80;99459.19;5116360;27;41705;-80
2023/04/30 06:40:50;;;;;;;8.80;7.67;;;;;;;17.87;50.17;99474.88;5133640;27;42932;-79
2023/04/30 06:43:18;;;;;;;8.87;7.60;;;;;;;17.63;50.95;99458.09;5134614;27;41794;-78
2023/04/30 06:45:46;;;;;;;9.73;8.23;;;;;;;17.19;50.99;99409.84;5133091;27;40056;-80
2023/04/30 06:48:13;;;;;;;8.73;7.73;;;;;;;17.29;50.84;99463.53;5134651;27;41775;-81
2023/04/30 06:50:43;;;;;;;8.00;7.30;;;;;;;17.16;51.65;99460.13;5116577;27;41739;-79
2023/04/30 06:53:13;;;;;;;8.80;7.90;;;;;;;17.24;51.82;99453.19;5133155;27;41192;-83
2023/04/30 06:55:41;;;;;;;8.20;7.00;;;;;;;17.44;52.61;99459.59;5133575;27;39099;-80
2023/04/30 06:58:09;;;;;;;8.50;7.80;;;;;;;17.62;51.82;99456.41;5134403;27;41876;-80
2023/04/30 07:00:36;;;;;;;7.93;7.13;;;;;;;17.83;52.46;99436.75;5116169;27;41872;-78
2023/04/30 07:03:04;;;;;;;8.23;7.43;;;;;;;17.99;50.64;99463.13;5133183;27;41918;-81
2023/04/30 07:05:32;;;;;;;8.37;7.50;;;;;;;18.08;50.53;99465.03;5116178;27;39168;-79
2023/04/30 07:08:02;;;;;;;8.80;7.83;;;;;;;17.83;49.99;99423.34;5134200;27;42710;-79
2023/04/30 07:10:31;;;;;;;8.10;7.30;;;;;;;17.98;49.90;99456.06;5116035;27;42066;-79
2023/04/30 07:12:59;;;;;;;7.80;7.10;;;;;;;17.80;48.57;99469.16;5132965;27;43569;-81
2023/04/30 07:15:27;;;;;;;7.87;7.03;;;;;;;17.91;49.20;99468.28;5116211;27;38926;-78
2023/04/30 07:17:54;;;;;;;8.00;7.30;;;;;;;18.00;49.03;99466.66;5132488;27;42680;-79
2023/04/30 07:20:22;;;;;;;7.70;6.77;;;;;;;18.07;48.50;99449.94;5115805;27;43811;-77
2023/04/30 07:22:50;;;;;;;7.00;6.20;;;;;;;18.57;51.55;99442.09;5132499;27;42302;-77
2023/04/30 07:25:18;;;;;;;8.60;6.77;;;;;;;18.78;48.99;99466.28;5133436;27;39866;-77
2023/04/30 07:27:47;;;;;;;7.23;6.53;;;;;;;18.94;48.85;99439.78;5134007;27;41949;-78
2023/04/30 07:30:14;;;;;;;8.17;6.80;;;;;;;19.33;46.71;99473.00;5132847;27;42746;-79
2023/04/30 07:32:42;;;;;;;7.70;6.57;;;;;;;19.48;46.58;99468.13;5134155;27;43494;-78
2023/04/30 07:35:10;;;;;;;6.70;6.00;;;;;;;19.54;49.43;99436.19;5133220;27;40007;-78
2023/04/30 07:37:38;;;;;;;6.90;6.30;;;;;;;19.52;46.74;99466.91;5132709;27;42485;-79
2023/04/30 07:40:11;;;;;;;7.43;6.70;;;;;;;19.59;47.29;99462.66;5132986;27;42732;-77
2023/04/30 07:42:39;;;;;;;8.83;6.67;;;;;;;19.79;47.00;99452.78;5132547;27;42964;-81
2023/04/30 07:45:11;;;;;;;7.47;6.60;;;;;;;19.83;46.06;99454.22;5115646;27;40245;-81
2023/04/30 07:47:39;;;;;;;6.73;6.13;;;;;;;20.20;45.02;99475.88;5132388;27;42250;-79
2023/04/30 07:50:08;;;;;;;7.33;6.63;;;;;;;20.86;42.90;99479.50;5115561;27;41961;-78
2023/04/30 07:52:35;;;;;;;7.43;6.70;;;;;;;21.41;43.79;99466.13;5132254;27;43178;-79
2023/04/30 07:55:03;;;;;;;6.60;6.10;;;;;;;21.60;41.20;99493.00;5133692;27;39708;-81
2023/04/30 07:57:31;;;;;;;6.53;5.90;;;;;;;21.57;42.24;99477.13;5131227;27;42035;-80
2023/04/30 07:59:58;;;;;;;5.90;5.40;;;;;;;21.70;41.77;99488.38;5132311;27;41502;-81
2023/04/30 08:02:28;;;;;;;7.17;5.90;;;;;;;21.75;41.50;99490.66;5131933;27;41196;-78
2023/04/30 08:04:55;;;;;;;6.30;5.63;;;;;;;21.71;40.21;99492.78;5132368;27;39719;-81
2023/04/30 08:07:24;;;;;;;6.27;5.63;;;;;;;22.11;40.88;99499.66;5133345;27;41698;-80
2023/04/30 08:09:52;;;;;;;5.90;5.17;;;;;;;22.61;40.60;99504.50;5132119;27;41391;-80
2023/04/30 08:12:19;;;;;;;7.00;5.73;;;;;;;22.89;39.14;99504.22;5114655;27;42172;-81
2023/04/30 08:14:47;;;;;;;5.93;5.43;;;;;;;22.99;37.40;99524.88;5114774;27;40027;-78
2023/04/30 08:17:15;;;;;;;5.10;4.60;;;;;;;23.08;37.68;99511.28;5132533;27;42900;-81
2023/04/30 08:19:44;;;;;;;4.63;4.20;;;;;;;23.12;38.35;99474.78;5131948;27;43189;-78
2023/04/30 08:22:12;;;;;;;4.20;3.80;;;;;;;23.49;36.12;99525.81;5131929;27;42686;-83
2023/04/30 08:24:40;;;;;;;3.57;3.17;;;;;;;23.27;34.20;99543.47;5132002;27;39101;-80
2023/04/30 08:27:08;;;;;;;4.17;3.27;;;;;;;23.12;34.68;99539.66;5131958;27;40538;-78
2023/04/30 08:29:35;;;;;;;3.47;3.27;;;;;;;23.46;34.93;99534.28;5131698;27;41457;-81
2023/04/30 08:32:04;;;;;;;3.40;3.10;;;;;;;24.03;34.07;99528.25;5132062;27;41124;-82
2023/04/30 08:34:32;;;;;;;3.50;3.20;;;;;;;24.80;33.11;99551.41;5132178;27;40697;-79
2023/04/30 08:37:01;;;;;;;3.23;2.93;;;;;;;26.02;30.72;99554.69;5131558;27;41764;-81
2023/04/30 08:39:29;;;;;;;2.80;2.60;;;;;;;27.44;28.03;99564.00;5114588;27;41984;-79
2023/04/30 08:41:58;;;;;;;3.30;3.00;;;;;;;28.73;26.47;99560.56;5131338;27;41793;-81
2023/04/30 08:44:27;;;;;;;3.33;3.03;;;;;;;30.00;25.89;99570.38;5114509;27;38619;-79
2023/04/30 08:46:57;;;;;;;3.30;3.00;;;;;;;30.86;24.30;99578.84;5114259;27;42042;-79
2023/04/30 08:49:27;;;;;;;2.93;2.37;;;;;;;30.90;25.82;99550.03;5131508;27;42790;-81
2023/04/30 08:51:55;;;;;;;3.10;2.80;;;;;;;30.63;27.13;99551.88;5114309;27;41719;-82
2023/04/30 08:54:26;;;;;;;2.83;2.63;;;;;;;30.43;25.44;99564.63;5114334;27;39992;-78
2023/04/30 08:56:53;;;;;;;3.30;3.00;;;;;;;30.11;25.71;99560.75;5131328;27;42022;-80
2023/04/30 08:59:21;;;;;;;3.33;2.90;;;;;;;29.95;26.50;99547.41;5114154;27;41793;-81
2023/04/30 09:01:49;;;;;;;2.80;2.60;;;;;;;29.59;26.02;99545.75;5114239;27;41404;-81
2023/04/30 09:04:16;;;;;;;2.83;2.63;;;;;;;29.72;26.52;99527.75;5131714;27;38887;-79
2023/04/30 09:06:45;;;;;;;3.33;3.10;;;;;;;30.07;25.21;99554.00;5131261;27;40914;-83
2023/04/30 09:09:14;;;;;;;3.00;2.77;;;;;;;31.43;24.05;99563.69;5130631;27;42579;-84
2023/04/30 09:11:43;;;;;;;3.57;2.97;;;;;;;32.01;23.26;99561.03;5132065;27;43241;-81
2023/04/30 09:14:11;;;;;;;3.13;2.90;;;;;;;32.19;22.87;99552.09;5113772;27;39522;-85
2023/04/30 09:16:46;;;;;;;3.40;3.08;;;;;;;32.51;22.66;99570.31;5113545;27;40819;-81
2023/04/30 09:19:26;;;;;;;3.05;2.85;;;;;;;32.88;22.64;99570.50;5133059;27;20222;-81
2023/04/30 09:21:55;;;;;;;3.13;2.83;;;;;;;34.07;21.12;99565.53;5130891;27;41252;-80
2023/04/30 09:24:23;;;;;;;2.78;2.58;;;;;;;35.43;20.35;99563.94;5113832;27;39691;-81
2023/04/30 09:26:53;;;;;;;2.30;2.10;;;;;;;36.82;18.71;99581.25;5132082;27;41792;-80
2023/04/30 09:29:21;;;;;;;2.58;2.00;;;;;;;36.61;19.55;99553.22;5113921;27;43284;-80
2023/04/30 09:31:49;;;;;;;2.40;2.20;;;;;;;36.56;18.27;99577.16;5130890;27;40811;-81
2023/04/30 09:34:16;;;;;;;2.25;2.05;;;;;;;35.88;18.24;99567.75;5131189;27;39851;-88
2023/04/30 09:36:54;;;;;;;2.10;1.90;;;;;;;35.44;19.43;99565.63;5113874;27;40728;-82
2023/04/30 09:39:22;;;;;;;2.50;2.30;;;;;;;35.16;19.49;99558.88;5131811;27;43520;-83
2023/04/30 09:41:52;;;;;;;1.98;1.88;;;;;;;34.63;20.97;99545.09;5130920;27;40806;-79
2023/04/30 09:44:30;;;;;;;2.55;2.35;;;;;;;34.11;21.35;99527.44;5130970;27;40928;-83
2023/04/30 09:46:58;;;;;;;2.05;1.85;;;;;;;33.59;21.33;99513.25;5130580;27;40639;-81
2023/04/30 09:49:27;;;;;;;2.55;2.20;;;;;;;33.43;20.60;99533.91;5130827;27;42531;-81
2023/04/30 09:51:56;;;;;;;3.38;1.98;;;;;;;33.99;20.42;99532.88;5132066;27;42720;-81
2023/04/30 09:54:26;;;;;;;2.42;2.22;;;;;;;34.14;20.11;99526.94;5113291;27;40521;-83
2023/04/30 09:56:58;;;;;;;2.22;1.75;;;;;;;34.08;21.58;99514.13;5130556;27;41749;-78
2023/04/30 09:59:30;;;;;;;2.20;2.10;;;;;;;33.41;21.57;99499.50;5113459;27;42674;-81
2023/04/30 10:02:00;;;;;;;2.30;2.10;;;;;;;32.63;21.63;99513.69;5130523;27;41137;-83
2023/04/30 10:04:30;;;;;;;2.10;1.90;;;;;;;31.78;22.70;99510.31;5130672;27;40130;-83
2023/04/30 10:07:01;;;;;;;2.37;1.57;;;;;;;31.31;22.92;99505.16;5130764;27;41770;-79
2023/04/30 10:09:35;;;;;;;2.07;1.87;;;;;;;30.73;21.53;99520.53;5130896;27;42335;-85
2023/04/30 10:12:08;;;;;;;2.00;1.60;;;;;;;30.10;22.29;99509.88;5128525;27;43279;-83
2023/04/30 10:14:37;;;;;;;1.60;1.50;;;;;;;29.74;22.72;99503.84;5130463;27;40024;-82
2023/04/30 10:17:10;;;;;;;1.57;1.47;;;;;;;29.31;23.21;99496.63;5130025;27;41323;-80
2023/04/30 10:19:43;;;;;;;1.90;1.80;;;;;;;29.17;24.85;99480.41;5113248;27;41780;-80
2023/04/30 10:22:11;;;;;;;2.00;1.67;;;;;;;28.68;23.39;99494.91;5132330;27;42509;-83
2023/04/30 10:24:39;;;;;;;1.60;1.30;;;;;;;28.49;23.91;99454.69;5135133;27;40222;-82
2023/04/30 10:27:08;;;;;;;1.83;1.47;;;;;;;28.95;24.17;99466.81;5133723;27;41833;-80
2023/04/30 10:29:36;;;;;;;1.50;1.40;;;;;;;29.35;24.74;99450.69;5116809;27;42838;-84
2023/04/30 10:32:05;;;;;;;3.57;1.20;;;;;;;29.41;22.88;99471.78;5133735;27;41682;-80
2023/04/30 10:34:41;;;;;;;2.37;1.63;;;;;;;29.65;24.91;99441.22;5116427;27;39345;-82
2023/04/30 10:37:17;;;;;;;1.57;1.30;;;;;;;29.91;22.52;99461.47;5132832;27;41982;-80
2023/04/30 10:39:46;;;;;;;2.03;1.23;;;;;;;30.20;23.35;99457.56;5133590;27;41859;-78
2023/04/30 10:42:15;;;;;;;3.37;1.60;;;;;;;29.60;22.10;99473.75;5116549;27;41967;-78
2023/04/30 10:44:43;;;;;;;1.33;1.23;;;;;;;29.46;22.21;99463.81;5133717;27;40654;-83
2023/04/30 10:47:11;;;;;;;1.60;1.50;;;;;;;29.54;23.24;99450.00;5099588;27;40475;-79
2023/04/30 10:49:41;;;;;;;1.70;1.13;;;;;;;29.32;23.17;99442.91;5133866;27;42850;-79
2023/04/30 10:52:11;;;;;;;1.47;1.10;;;;;;;30.80;23.34;99423.75;5133186;27;42332;-78
2023/04/30 10:54:48;;;;;;;1.70;1.60;;;;;;;31.42;21.58;99450.59;5134596;27;40068;-82
2023/04/30 10:57:19;;;;;;;1.97;1.53;;;;;;;31.68;21.77;99449.66;5116308;27;40846;-81
2023/04/30 10:59:53;;;;;;;1.53;1.43;;;;;;;31.86;21.10;99456.34;5133073;27;41677;-81
2023/04/30 11:02:20;;;;;;;1.80;1.53;;;;;;;32.26;22.58;99438.63;5116127;27;42115;-82
2023/04/30 11:05:11;;;;;;;1.80;1.47;;;;;;;32.81;20.32;99452.56;5133460;27;39986;-80
2023/04/30 11:07:48;;;;;;;1.47;1.37;;;;;;;33.01;20.33;99442.22;5133169;27;41724;-80
2023/04/30 11:10:17;;;;;;;1.30;1.20;;;;;;;33.54;19.57;99449.91;5133153;27;42875;-82
2023/04/30 11:12:50;;;;;;;1.45;1.35;;;;;;;34.54;19.40;99437.31;5134322;27;42040;-84
2023/04/30 11:15:20;;;;;;;1.52;1.35;;;;;;;34.96;18.19;99452.94;5131384;27;40359;-82
2023/04/30 11:17:48;;;;;;;1.50;1.40;;;;;;;35.59;17.96;99444.72;5115330;27;40428;-82
2023/04/30 11:20:20;;;;;;;1.58;1.30;;;;;;;36.81;17.91;99453.41;5132915;27;42951;-83
2023/04/30 11:22:48;;;;;;;1.27;1.20;;;;;;;37.31;17.73;99438.72;5132867;27;41145;-82
2023/04/30 11:25:19;;;;;;;1.60;1.27;;;;;;;36.68;17.04;99443.50;5133088;27;39142;-82
2023/04/30 11:27:49;;;;;;;2.80;1.20;;;;;;;36.21;19.06;99433.84;5132447;27;41697;-82
2023/04/30 11:30:19;;;;;;;1.20;1.10;;;;;;;36.24;18.47;99431.44;5132898;27;41915;-80
2023/04/30 11:32:49;;;;;;;1.30;1.20;;;;;;;34.78;18.85;99440.94;5115205;27;41377;-78
2023/04/30 11:35:19;;;;;;;1.27;1.17;;;;;;;34.53;18.30;99432.88;5133932;27;40882;-83
2023/04/30 11:37:48;;;;;;;1.20;1.10;;;;;;;34.35;18.85;99399.97;5132158;27;41095;-81
2023/04/30 11:40:16;;;;;;;1.20;1.20;;;;;;;34.40;18.56;99433.09;5132629;27;42724;-81